createdAt,value
2017-02-09T00:00:03.009Z,0
2017-02-09T00:05:06.367Z,0
2017-02-09T00:10:03.061Z,0
2017-02-09T00:15:03.035Z,0
2017-02-09T00:20:02.827Z,0
2017-02-09T00:25:03.313Z,0
2017-02-09T00:45:02.677Z,0
2017-02-09T00:50:03.478Z,0
2017-02-09T00:55:03.264Z,0
2017-02-09T01:00:03.131Z,0
2017-02-09T01:06:06.085Z,0
2017-02-09T01:10:02.761Z,0
2017-02-09T01:25:03.110Z,0
2017-02-09T01:30:04.141Z,0
2017-02-09T01:35:02.929Z,0
2017-02-09T01:45:03.418Z,0
2017-02-09T01:50:04.090Z,0
2017-02-09T01:55:03.816Z,0
2017-02-09T02:00:03.402Z,0
2017-02-09T02:15:02.797Z,0
2017-02-09T02:25:04.419Z,0
2017-02-09T02:30:03.196Z,0
2017-02-09T02:35:03.027Z,0
2017-02-09T02:40:09.480Z,0
2017-02-09T02:45:03.238Z,0
2017-02-09T02:50:02.629Z,0
2017-02-09T03:15:02.772Z,0
2017-02-09T03:20:03.745Z,0
2017-02-09T03:25:03.211Z,0
2017-02-09T03:40:02.586Z,0
2017-02-09T03:50:04.488Z,0
2017-02-09T06:35:03.440Z,3
2017-02-09T06:40:02.936Z,6
2017-02-09T06:45:02.597Z,15
2017-02-09T06:50:03.388Z,28
2017-02-09T06:55:02.852Z,31
2017-02-09T07:00:03.290Z,40
2017-02-09T07:05:02.956Z,50
2017-02-09T07:10:02.619Z,57
2017-02-09T07:15:03.169Z,89
2017-02-09T07:20:02.748Z,143
2017-02-09T07:25:03.048Z,269
2017-02-09T07:30:02.554Z,338
2017-02-09T07:35:02.879Z,406
2017-02-09T07:40:02.527Z,482
2017-02-09T07:45:03.102Z,553
2017-02-09T07:50:02.516Z,664
2017-02-09T07:55:03.275Z,743
2017-02-09T08:00:03.076Z,802
2017-02-09T08:05:02.425Z,886
2017-02-09T08:10:02.803Z,946
2017-02-09T08:15:02.627Z,1000
2017-02-09T08:20:03.121Z,1000
2017-02-09T08:25:02.497Z,1000
2017-02-09T08:30:03.029Z,1000
2017-02-09T08:35:02.496Z,1000
2017-02-09T08:40:03.005Z,1000
2017-02-09T08:45:02.657Z,1000
2017-02-09T08:50:03.114Z,1000
2017-02-09T08:55:02.744Z,1000
2017-02-09T09:00:03.077Z,2000
2017-02-09T09:05:02.707Z,2000
2017-02-09T09:10:03.353Z,2000
2017-02-09T09:15:02.940Z,2000
2017-02-09T09:20:03.284Z,2000
2017-02-09T09:25:02.670Z,2000
2017-02-09T09:30:03.071Z,2000
2017-02-09T09:35:02.491Z,2000
2017-02-09T09:40:02.860Z,2000
2017-02-09T09:45:03.473Z,3000
2017-02-09T09:50:02.986Z,3000
2017-02-09T09:55:02.597Z,3000
2017-02-09T10:00:03.110Z,3000
2017-02-09T10:05:02.989Z,3000
2017-02-09T10:10:02.665Z,4000
2017-02-09T10:15:03.145Z,4000
2017-02-09T10:20:02.806Z,4000
2017-02-09T10:25:03.259Z,3000
2017-02-09T10:30:02.712Z,3000
2017-02-09T10:35:03.117Z,4000
2017-02-09T10:40:02.564Z,4000
2017-02-09T10:45:03.074Z,4000
2017-02-09T10:50:03.369Z,4000
2017-02-09T10:55:02.840Z,4000
2017-02-09T11:00:03.277Z,4000
2017-02-09T11:05:02.884Z,4000
2017-02-09T11:10:02.570Z,4000
2017-02-09T11:15:03.404Z,4000
2017-02-09T11:20:03.468Z,4000
2017-02-09T11:25:03.155Z,4000
2017-02-09T11:30:02.956Z,4000
2017-02-09T11:35:02.752Z,4000
2017-02-09T11:40:02.907Z,4000
2017-02-09T11:45:02.974Z,4000
2017-02-09T11:50:02.479Z,4000
2017-02-09T11:55:03.129Z,5000
2017-02-09T12:00:02.998Z,5000
2017-02-09T12:05:02.552Z,5000
2017-02-09T12:10:02.488Z,5000
2017-02-09T12:15:03.082Z,5000
2017-02-09T12:20:02.626Z,6000
2017-02-09T12:25:02.529Z,6000
2017-02-09T12:30:03.012Z,6000
2017-02-09T12:35:02.586Z,6000
2017-02-09T12:40:03.313Z,5000
2017-02-09T12:45:02.871Z,6000
2017-02-09T12:50:02.504Z,6000
2017-02-09T12:55:02.923Z,5000
2017-02-09T13:00:02.531Z,5000
2017-02-09T13:05:02.909Z,5000
2017-02-09T13:10:03.395Z,4000
2017-02-09T13:15:02.930Z,4000
2017-02-09T13:20:02.764Z,4000
2017-02-09T13:25:03.225Z,4000
2017-02-09T13:30:02.706Z,4000
2017-02-09T13:35:02.665Z,4000
2017-02-09T13:40:03.279Z,4000
2017-02-09T13:45:02.906Z,5000
2017-02-09T13:50:03.366Z,5000
2017-02-09T13:55:02.816Z,4000
2017-02-09T14:00:02.524Z,3000
2017-02-09T14:05:03.301Z,4000
2017-02-09T14:10:03.338Z,4000
2017-02-09T14:15:03.155Z,3000
2017-02-09T14:20:02.624Z,3000
2017-02-09T14:25:03.106Z,3000
2017-02-09T14:30:02.649Z,4000
2017-02-09T14:35:03.200Z,4000
2017-02-09T14:40:02.585Z,3000
2017-02-09T14:45:03.093Z,3000
2017-02-09T14:50:02.479Z,3000
2017-02-09T14:55:02.444Z,3000
2017-02-09T15:00:02.989Z,2000
2017-02-09T15:05:02.497Z,2000
2017-02-09T15:10:03.177Z,2000
2017-02-09T15:15:02.471Z,2000
2017-02-09T15:20:02.989Z,2000
2017-02-09T15:25:02.488Z,2000
2017-02-09T15:30:03.114Z,2000
2017-02-09T15:35:02.913Z,2000
2017-02-09T15:40:03.340Z,2000
2017-02-09T15:45:02.638Z,2000
2017-02-09T15:50:03.021Z,1000
2017-02-09T15:55:02.510Z,1000
2017-02-09T16:00:03.017Z,1000
2017-02-09T16:05:02.543Z,915
2017-02-09T16:10:03.307Z,915
2017-02-09T16:15:02.758Z,661
2017-02-09T16:20:03.401Z,529
2017-02-09T16:25:02.845Z,398
2017-02-09T16:30:03.380Z,168
2017-02-09T16:35:02.823Z,75
2017-02-09T16:40:03.381Z,63
2017-02-09T16:45:02.845Z,54
2017-02-09T16:50:03.285Z,54
2017-02-09T16:55:02.925Z,31
2017-02-09T17:00:02.717Z,17
2017-02-09T17:05:03.178Z,10
2017-02-09T17:10:02.680Z,4
2017-02-09T17:15:03.231Z,0
2017-02-09T17:20:02.764Z,0
2017-02-09T17:25:03.411Z,0
2017-02-09T17:30:02.945Z,0
2017-02-09T17:35:02.955Z,0
2017-02-09T17:40:03.285Z,0
2017-02-09T17:45:02.625Z,0
2017-02-09T17:50:03.054Z,0
2017-02-09T17:55:03.378Z,0
2017-02-09T18:00:02.864Z,0
2017-02-09T18:05:03.365Z,0
2017-02-09T18:10:02.887Z,0
2017-02-09T18:15:03.160Z,0
2017-02-09T18:20:02.469Z,0
2017-02-09T18:25:02.959Z,0
2017-02-09T18:30:03.361Z,0
2017-02-09T18:35:02.791Z,0
2017-02-09T18:40:03.420Z,0
2017-02-09T18:45:03.120Z,0
2017-02-09T18:50:02.803Z,0
2017-02-09T18:55:03.406Z,0
2017-02-09T19:00:03.020Z,0
2017-02-09T19:05:02.699Z,0
2017-02-09T19:10:03.313Z,0
2017-02-09T19:15:02.975Z,0
2017-02-09T19:20:02.537Z,0
2017-02-09T19:25:02.876Z,0
2017-02-09T19:30:03.399Z,0
2017-02-09T19:35:02.567Z,0
2017-02-09T19:40:03.025Z,0
2017-02-09T19:45:02.485Z,0
2017-02-09T19:50:02.913Z,0
2017-02-09T19:55:03.562Z,0
2017-02-09T20:00:03.078Z,0
2017-02-09T20:05:02.726Z,0
2017-02-09T20:10:03.163Z,0
2017-02-09T20:15:02.548Z,0
2017-02-09T20:20:02.842Z,0
2017-02-09T20:25:03.353Z,0
2017-02-09T20:30:02.851Z,0
2017-02-09T20:35:03.386Z,0
2017-02-09T20:40:03.251Z,0
2017-02-09T20:45:02.709Z,0
2017-02-09T20:50:03.490Z,0
2017-02-09T20:55:02.998Z,0
2017-02-09T21:00:02.509Z,0
2017-02-09T21:05:03.195Z,0
2017-02-09T21:10:02.709Z,0
2017-02-09T21:15:03.440Z,0
2017-02-09T21:20:02.809Z,0
2017-02-09T21:25:03.267Z,0
2017-02-09T21:30:02.967Z,0
2017-02-09T21:35:02.584Z,0
2017-02-09T21:40:03.104Z,0
2017-02-09T21:45:02.763Z,0
2017-02-09T21:50:02.434Z,0
2017-02-09T21:55:02.861Z,0
2017-02-09T22:00:03.312Z,0
2017-02-09T22:05:02.674Z,0
2017-02-09T22:10:03.120Z,0
2017-02-09T22:15:02.563Z,0
2017-02-09T22:20:02.955Z,0
2017-02-09T22:25:02.529Z,0
2017-02-09T22:30:03.317Z,0
2017-02-09T22:35:02.668Z,0
2017-02-09T22:40:03.043Z,0
2017-02-09T22:45:02.526Z,0
2017-02-09T22:50:02.877Z,0
2017-02-09T22:55:02.527Z,0
2017-02-09T23:00:02.843Z,0
2017-02-09T23:05:03.434Z,0
2017-02-09T23:10:02.935Z,0
2017-02-09T23:15:02.423Z,0
2017-02-09T23:20:03.290Z,0
2017-02-09T23:25:02.842Z,0
2017-02-09T23:30:03.328Z,0
2017-02-09T23:35:02.922Z,0
2017-02-09T23:40:02.524Z,0
2017-02-09T23:45:02.999Z,0
2017-02-09T23:50:02.549Z,0
2017-02-09T23:55:02.933Z,0
